createdAt,value
2019-05-23T00:00:57.316Z,19.65
2019-05-23T00:02:41.164Z,19.48
2019-05-23T00:04:26.750Z,20.15
2019-05-23T00:06:03.624Z,19.40
2019-05-23T00:07:36.189Z,23.07
2019-05-23T00:09:09.103Z,21.02
2019-05-23T00:10:44.922Z,18.85
2019-05-23T00:12:44.649Z,22.58
2019-05-23T00:14:30.861Z,25.82
2019-05-23T00:16:04.250Z,21.20
2019-05-23T00:17:36.461Z,21.48
2019-05-23T00:19:10.266Z,20.97
2019-05-23T00:20:44.504Z,23.55
2019-05-23T00:22:16.801Z,21.33
2019-05-23T00:23:49.560Z,21.50
2019-05-23T00:25:22.684Z,22.60
2019-05-23T00:26:56.161Z,23.10
2019-05-23T00:28:28.569Z,21.05
2019-05-23T00:30:02.531Z,20.62
2019-05-23T00:31:40.441Z,20.92
2019-05-23T00:33:17.329Z,21.73
2019-05-23T00:34:50.684Z,20.50
2019-05-23T00:36:23.103Z,21.23
2019-05-23T00:37:55.923Z,21.87
2019-05-23T00:39:29.011Z,23.30
2019-05-23T00:41:02.065Z,20.68
2019-05-23T00:42:34.396Z,21.02
2019-05-23T00:44:06.585Z,23.30
2019-05-23T00:45:39.915Z,20.12
2019-05-23T00:47:12.971Z,17.90
2019-05-23T00:48:45.283Z,20.57
2019-05-23T00:50:19.956Z,21.02
2019-05-23T00:51:52.778Z,21.15
2019-05-23T00:53:25.607Z,22.82
2019-05-23T00:54:59.110Z,21.37
2019-05-23T00:56:32.662Z,20.72
2019-05-23T00:58:04.970Z,20.90
2019-05-23T00:59:39.087Z,23.05
2019-05-23T01:01:12.746Z,19.62
2019-05-23T01:02:45.440Z,20.77
2019-05-23T01:04:18.397Z,21.33
2019-05-23T01:05:52.481Z,19.20
2019-05-23T01:07:25.140Z,19.62
2019-05-23T01:08:58.657Z,20.05
2019-05-23T01:10:31.505Z,18.67
2019-05-23T01:12:05.319Z,22.65
2019-05-23T01:13:38.378Z,19.67
2019-05-23T01:15:12.606Z,20.60
2019-05-23T01:16:45.244Z,20.05
2019-05-23T01:18:17.498Z,19.27
2019-05-23T01:19:50.543Z,22.27
2019-05-23T01:21:42.876Z,20.65
2019-05-23T01:23:15.616Z,19.77
2019-05-23T01:24:51.812Z,19.80
2019-05-23T01:26:24.322Z,19.87
2019-05-23T01:27:56.787Z,18.82
2019-05-23T01:29:37.782Z,20.12
2019-05-23T01:31:08.011Z,21.02
2019-05-23T01:32:42.162Z,19.73
2019-05-23T01:34:16.044Z,19.07
2019-05-23T01:35:48.237Z,19.77
2019-05-23T01:37:20.710Z,20.70
2019-05-23T01:38:53.166Z,19.65
2019-05-23T01:40:25.267Z,19.45
2019-05-23T01:41:57.836Z,19.50
2019-05-23T01:43:31.724Z,19.62
2019-05-23T01:45:05.543Z,17.40
2019-05-23T01:46:39.571Z,19.85
2019-05-23T01:48:12.211Z,20.05
2019-05-23T01:49:44.605Z,19.73
2019-05-23T01:51:17.044Z,20.20
2019-05-23T01:52:49.489Z,20.43
2019-05-23T01:54:22.391Z,18.82
2019-05-23T01:55:54.782Z,20.30
2019-05-23T01:57:26.881Z,17.70
2019-05-23T01:58:59.642Z,20.80
2019-05-23T02:00:32.609Z,21.77
2019-05-23T02:02:07.074Z,19.65
2019-05-23T02:03:40.118Z,26.00
2019-05-23T02:05:13.461Z,19.98
2019-05-23T02:06:45.864Z,20.43
2019-05-23T02:08:18.568Z,18.52
2019-05-23T02:09:51.625Z,21.62
2019-05-23T02:11:23.938Z,18.55
2019-05-23T02:12:57.223Z,21.95
2019-05-23T02:14:29.763Z,21.37
2019-05-23T02:16:02.610Z,19.40
2019-05-23T02:17:36.681Z,20.88
2019-05-23T02:19:09.042Z,21.00
2019-05-23T02:20:41.769Z,21.42
2019-05-23T02:22:13.988Z,23.30
2019-05-23T02:23:46.688Z,20.12
2019-05-23T02:25:20.962Z,21.73
2019-05-23T02:26:53.068Z,22.93
2019-05-23T02:28:25.282Z,23.60
2019-05-23T02:29:58.305Z,23.50
2019-05-23T02:31:31.638Z,23.35
2019-05-23T02:33:04.793Z,23.77
2019-05-23T02:34:37.005Z,21.25
2019-05-23T02:36:10.164Z,22.27
2019-05-23T02:37:56.108Z,23.32
2019-05-23T02:39:48.028Z,26.60
2019-05-23T02:41:40.292Z,24.37
2019-05-23T02:43:14.816Z,22.00
2019-05-23T02:44:47.368Z,24.00
2019-05-23T02:46:24.547Z,23.90
2019-05-23T02:47:57.757Z,23.95
2019-05-23T02:49:32.950Z,24.98
2019-05-23T02:51:12.409Z,21.40
2019-05-23T02:52:49.525Z,22.93
2019-05-23T02:54:25.554Z,22.00
2019-05-23T02:56:01.870Z,22.45
2019-05-23T02:57:34.832Z,22.37
2019-05-23T02:59:33.044Z,24.30
2019-05-23T03:01:50.438Z,23.90
2019-05-23T03:03:28.850Z,21.23
2019-05-23T03:05:03.367Z,21.37
2019-05-23T03:06:39.006Z,21.85
2019-05-23T03:08:13.081Z,22.42
2019-05-23T03:09:47.120Z,20.15
2019-05-23T03:11:38.948Z,22.07
2019-05-23T03:13:11.101Z,21.42
2019-05-23T03:14:45.229Z,22.93
2019-05-23T03:16:23.680Z,21.60
2019-05-23T03:17:59.901Z,20.27
2019-05-23T03:19:37.926Z,19.42
2019-05-23T03:21:11.631Z,21.73
2019-05-23T03:22:47.733Z,21.05
2019-05-23T03:24:21.140Z,23.77
2019-05-23T03:26:35.534Z,23.73
2019-05-23T03:28:11.838Z,21.87
2019-05-23T03:29:46.113Z,22.25
2019-05-23T03:31:44.085Z,23.85
2019-05-23T03:33:17.061Z,23.67
2019-05-23T03:34:53.914Z,24.10
2019-05-23T03:36:26.491Z,21.48
2019-05-23T03:37:59.573Z,22.27
2019-05-23T03:39:32.567Z,22.42
2019-05-23T03:41:05.189Z,22.67
2019-05-23T03:42:37.862Z,19.85
2019-05-23T03:44:11.935Z,22.67
2019-05-23T03:45:52.699Z,21.68
2019-05-23T03:47:26.973Z,22.40
2019-05-23T03:49:00.021Z,22.60
2019-05-23T03:50:33.533Z,23.32
2019-05-23T03:52:08.213Z,19.57
2019-05-23T03:53:41.664Z,22.77
2019-05-23T03:55:15.657Z,21.02
2019-05-23T03:56:48.278Z,20.45
2019-05-23T03:58:22.238Z,20.75
2019-05-23T03:59:56.162Z,20.55
2019-05-23T04:01:45.886Z,22.77
2019-05-23T04:03:05.645Z,21.33
2019-05-23T04:04:38.945Z,21.35
2019-05-23T04:06:13.336Z,19.05
2019-05-23T04:07:45.573Z,21.97
2019-05-23T04:09:17.757Z,21.82
2019-05-23T04:10:52.030Z,22.85
2019-05-23T04:12:24.749Z,21.85
2019-05-23T04:13:57.102Z,19.87
2019-05-23T04:15:29.975Z,22.60
2019-05-23T04:17:03.617Z,24.20
2019-05-23T04:18:36.732Z,22.27
2019-05-23T04:20:10.261Z,24.70
2019-05-23T04:21:42.478Z,24.95
2019-05-23T04:23:16.120Z,23.80
2019-05-23T04:24:48.481Z,23.90
2019-05-23T04:26:22.054Z,25.10
2019-05-23T04:27:54.578Z,24.20
2019-05-23T04:29:27.474Z,23.10
2019-05-23T04:30:59.844Z,23.73
2019-05-23T04:32:32.099Z,26.23
2019-05-23T04:34:04.282Z,23.45
2019-05-23T04:35:36.616Z,26.00
2019-05-23T04:37:09.262Z,23.55
2019-05-23T04:38:41.538Z,23.60
2019-05-23T04:40:14.188Z,23.40
2019-05-23T04:41:46.562Z,23.80
2019-05-23T04:43:18.661Z,24.90
2019-05-23T04:44:50.780Z,24.63
2019-05-23T04:46:23.349Z,23.70
2019-05-23T04:47:55.417Z,23.60
2019-05-23T04:49:27.865Z,23.60
2019-05-23T04:51:00.816Z,24.15
2019-05-23T04:52:32.987Z,22.22
2019-05-23T04:54:05.700Z,22.45
2019-05-23T04:55:38.830Z,22.27
2019-05-23T04:57:12.541Z,23.55
2019-05-23T04:58:45.169Z,23.05
2019-05-23T05:00:18.494Z,23.65
2019-05-23T05:01:51.317Z,23.12
2019-05-23T05:03:24.016Z,23.02
2019-05-23T05:04:57.250Z,26.02
2019-05-23T05:06:33.094Z,23.52
2019-05-23T05:08:05.529Z,24.80
2019-05-23T05:09:38.264Z,23.40
2019-05-23T05:11:10.649Z,25.52
2019-05-23T05:12:43.418Z,23.83
2019-05-23T05:14:15.648Z,25.45
2019-05-23T05:15:48.112Z,26.27
2019-05-23T05:17:20.497Z,22.58
2019-05-23T05:18:55.298Z,25.12
2019-05-23T05:20:27.985Z,23.85
2019-05-23T05:22:00.131Z,24.30
2019-05-23T05:23:32.400Z,22.60
2019-05-23T05:25:05.000Z,21.02
2019-05-23T05:26:37.162Z,20.12
2019-05-23T05:28:09.388Z,21.07
2019-05-23T05:29:41.631Z,27.07
2019-05-23T05:31:13.840Z,22.35
2019-05-23T05:32:46.586Z,23.10
2019-05-23T05:34:18.935Z,24.90
2019-05-23T05:35:51.248Z,24.70
2019-05-23T05:37:23.465Z,21.30
2019-05-23T05:38:57.115Z,23.25
2019-05-23T05:40:29.357Z,24.57
2019-05-23T05:42:01.983Z,20.97
2019-05-23T05:43:34.861Z,23.98
2019-05-23T05:45:07.311Z,22.62
2019-05-23T05:46:39.868Z,20.52
2019-05-23T05:48:12.192Z,20.88
2019-05-23T05:49:44.856Z,22.80
2019-05-23T05:51:17.352Z,19.85
2019-05-23T05:52:49.469Z,22.07
2019-05-23T05:54:21.577Z,22.20
2019-05-23T05:55:53.818Z,21.45
2019-05-23T05:57:26.278Z,21.57
2019-05-23T05:58:58.751Z,21.68
2019-05-23T06:00:45.310Z,21.33
2019-05-23T06:02:17.641Z,20.92
2019-05-23T06:03:50.043Z,23.38
2019-05-23T06:05:32.487Z,21.25
2019-05-23T06:07:17.189Z,21.37
2019-05-23T06:08:51.921Z,21.40
2019-05-23T06:10:24.501Z,21.10
2019-05-23T06:11:56.717Z,19.95
2019-05-23T06:13:28.988Z,21.02
2019-05-23T06:15:01.266Z,18.70
2019-05-23T06:16:34.547Z,22.30
2019-05-23T06:18:06.859Z,20.23
2019-05-23T06:19:39.606Z,21.40
2019-05-23T06:21:13.901Z,17.70
2019-05-23T06:22:46.413Z,23.38
2019-05-23T06:24:18.520Z,22.10
2019-05-23T06:25:50.764Z,20.50
2019-05-23T06:27:23.031Z,19.75
2019-05-23T06:28:55.121Z,20.68
2019-05-23T06:30:28.037Z,18.60
2019-05-23T06:32:00.789Z,20.57
2019-05-23T06:33:33.569Z,19.55
2019-05-23T06:35:06.128Z,19.25
2019-05-23T06:36:38.567Z,19.30
2019-05-23T06:38:10.743Z,18.80
2019-05-23T06:39:43.378Z,18.20
2019-05-23T06:41:16.329Z,18.87
2019-05-23T06:42:50.930Z,18.00
2019-05-23T06:44:23.108Z,17.25
2019-05-23T06:45:55.515Z,17.23
2019-05-23T06:47:27.841Z,17.62
2019-05-23T06:49:00.220Z,17.85
2019-05-23T06:50:32.908Z,16.48
2019-05-23T06:52:05.150Z,19.23
2019-05-23T06:53:37.395Z,16.07
2019-05-23T06:55:10.318Z,17.47
2019-05-23T06:56:42.684Z,16.47
2019-05-23T06:58:16.024Z,15.07
2019-05-23T06:59:48.502Z,15.67
2019-05-23T07:01:20.794Z,15.17
2019-05-23T07:02:53.046Z,15.43
2019-05-23T07:04:25.985Z,15.23
2019-05-23T07:05:58.162Z,14.93
2019-05-23T07:07:31.801Z,15.50
2019-05-23T07:09:11.061Z,15.63
2019-05-23T07:10:44.717Z,15.27
2019-05-23T07:12:17.177Z,14.87
2019-05-23T07:13:49.741Z,15.23
2019-05-23T07:15:23.789Z,15.57
2019-05-23T07:16:56.088Z,14.73
2019-05-23T07:18:28.168Z,15.73
2019-05-23T07:20:00.343Z,15.47
2019-05-23T07:21:32.886Z,14.57
2019-05-23T07:23:09.109Z,14.20
2019-05-23T07:24:56.952Z,14.43
2019-05-23T07:26:15.764Z,14.33
2019-05-23T07:27:48.448Z,14.70
2019-05-23T07:29:20.822Z,15.17
2019-05-23T07:30:53.311Z,15.20
2019-05-23T07:32:25.676Z,13.60
2019-05-23T07:34:02.231Z,14.13
2019-05-23T07:35:32.526Z,15.37
2019-05-23T07:37:05.026Z,15.00
2019-05-23T07:38:37.259Z,14.30
2019-05-23T07:40:09.734Z,13.63
2019-05-23T07:41:41.937Z,14.13
2019-05-23T07:43:14.085Z,13.80
2019-05-23T07:44:48.746Z,13.27
2019-05-23T07:46:21.136Z,13.57
2019-05-23T07:47:53.257Z,14.00
2019-05-23T07:49:25.794Z,14.50
2019-05-23T07:50:57.936Z,14.27
2019-05-23T07:52:30.179Z,14.47
2019-05-23T07:54:28.227Z,14.27
2019-05-23T07:56:00.520Z,14.30
2019-05-23T07:57:33.012Z,14.93
2019-05-23T07:59:05.246Z,15.97
2019-05-23T08:00:41.537Z,15.40
2019-05-23T08:02:30.539Z,15.07
2019-05-23T08:04:19.660Z,15.63
2019-05-23T08:05:37.934Z,16.87
2019-05-23T08:07:11.977Z,16.10
2019-05-23T08:08:44.193Z,16.17
2019-05-23T08:10:32.483Z,16.80
2019-05-23T08:11:51.027Z,16.53
2019-05-23T08:13:24.209Z,16.50
2019-05-23T08:14:56.479Z,16.30
2019-05-23T08:16:28.818Z,16.00
2019-05-23T08:18:01.264Z,16.13
2019-05-23T08:19:48.494Z,15.60
2019-05-23T08:21:07.524Z,15.90
2019-05-23T08:22:39.813Z,15.97
2019-05-23T08:24:12.638Z,16.03
2019-05-23T08:25:44.902Z,15.13
2019-05-23T08:27:17.155Z,15.97
2019-05-23T08:29:12.225Z,15.00
2019-05-23T08:30:23.361Z,15.43
2019-05-23T08:31:55.620Z,16.37
2019-05-23T08:33:27.892Z,16.10
2019-05-23T08:35:00.458Z,15.47
2019-05-23T08:36:32.755Z,15.13
2019-05-23T08:38:05.478Z,15.27
2019-05-23T08:39:38.367Z,15.70
2019-05-23T08:41:11.184Z,15.10
2019-05-23T08:42:43.763Z,15.07
2019-05-23T08:44:16.276Z,15.97
2019-05-23T08:45:48.560Z,16.37
2019-05-23T08:47:21.430Z,16.37
2019-05-23T08:48:53.665Z,16.97
2019-05-23T08:50:26.571Z,15.90
2019-05-23T08:51:58.724Z,16.50
2019-05-23T08:53:31.382Z,16.00
2019-05-23T08:55:12.486Z,16.87
2019-05-23T08:56:44.689Z,16.73
2019-05-23T08:58:17.380Z,16.30
2019-05-23T08:59:49.674Z,17.17
2019-05-23T09:01:21.771Z,15.83
2019-05-23T09:02:58.248Z,16.60
2019-05-23T09:04:29.564Z,16.47
2019-05-23T09:06:02.690Z,15.63
2019-05-23T09:07:34.991Z,15.47
2019-05-23T09:09:27.762Z,16.77
2019-05-23T09:10:42.527Z,17.03
2019-05-23T09:12:14.626Z,15.77
2019-05-23T09:13:46.888Z,16.90
2019-05-23T09:15:19.227Z,17.27
2019-05-23T09:16:51.635Z,17.00
2019-05-23T09:18:23.722Z,16.47
2019-05-23T09:19:55.912Z,14.73
2019-05-23T09:21:28.013Z,17.27
2019-05-23T09:23:00.250Z,16.27
2019-05-23T09:24:32.530Z,15.73
2019-05-23T09:26:04.763Z,16.33
2019-05-23T09:27:36.988Z,15.57
2019-05-23T09:29:09.838Z,16.30
2019-05-23T09:30:42.235Z,16.90
2019-05-23T09:32:15.373Z,15.03
2019-05-23T09:33:47.753Z,17.23
2019-05-23T09:35:22.188Z,16.50
2019-05-23T09:36:54.579Z,15.57
2019-05-23T09:38:27.357Z,17.07
2019-05-23T09:39:59.437Z,16.60
2019-05-23T09:41:32.080Z,16.33
2019-05-23T09:43:05.392Z,17.70
2019-05-23T09:44:37.682Z,16.57
2019-05-23T09:46:10.092Z,16.20
2019-05-23T09:47:42.640Z,16.13
2019-05-23T09:49:14.780Z,16.00
2019-05-23T09:50:47.335Z,17.83
2019-05-23T09:52:20.962Z,15.03
2019-05-23T09:53:53.061Z,16.80
2019-05-23T09:55:25.837Z,17.40
2019-05-23T09:56:58.237Z,17.97
2019-05-23T09:58:30.392Z,17.63
2019-05-23T10:00:05.351Z,12.57
2019-05-23T10:01:37.462Z,18.20
2019-05-23T10:03:09.860Z,17.67
2019-05-23T10:04:42.123Z,19.10
2019-05-23T10:06:14.271Z,19.57
2019-05-23T10:07:46.694Z,13.87
2019-05-23T10:09:19.188Z,16.83
2019-05-23T10:10:51.541Z,14.30
2019-05-23T10:12:24.151Z,16.87
2019-05-23T10:13:56.381Z,17.20
2019-05-23T10:15:48.796Z,17.97
2019-05-23T10:17:21.455Z,16.90
2019-05-23T10:18:53.734Z,20.30
2019-05-23T10:20:28.805Z,21.10
2019-05-23T10:22:00.943Z,20.90
2019-05-23T10:23:33.343Z,23.23
2019-05-23T10:25:05.786Z,22.43
2019-05-23T10:26:38.163Z,14.30
2019-05-23T10:28:10.809Z,17.17
2019-05-23T10:29:43.047Z,23.17
2019-05-23T10:31:15.264Z,23.07
2019-05-23T10:32:47.552Z,22.50
2019-05-23T10:34:19.824Z,21.07
2019-05-23T10:36:00.594Z,22.83
2019-05-23T10:37:26.431Z,22.50
2019-05-23T10:38:58.587Z,20.50
2019-05-23T10:40:30.824Z,22.63
2019-05-23T10:42:03.073Z,23.37
2019-05-23T10:43:35.331Z,45.10
2019-05-23T10:45:08.830Z,23.50
2019-05-23T10:46:41.164Z,22.90
2019-05-23T10:48:15.462Z,26.47
2019-05-23T10:49:47.589Z,19.27
2019-05-23T10:51:20.158Z,22.67
2019-05-23T10:52:52.423Z,24.90
2019-05-23T10:54:24.713Z,15.63
2019-05-23T10:55:56.884Z,14.33
2019-05-23T10:57:29.395Z,16.90
2019-05-23T10:59:02.146Z,23.03
2019-05-23T11:00:35.853Z,17.90
2019-05-23T11:02:08.117Z,20.33
2019-05-23T11:03:40.351Z,19.50
2019-05-23T11:05:14.269Z,20.93
2019-05-23T11:06:46.845Z,22.80
2019-05-23T11:08:19.593Z,21.37
2019-05-23T11:09:52.130Z,21.07
2019-05-23T11:11:25.273Z,20.87
2019-05-23T11:12:57.700Z,22.30
2019-05-23T11:14:29.816Z,22.00
2019-05-23T11:16:02.759Z,21.33
2019-05-23T11:17:35.349Z,22.20
2019-05-23T11:19:08.282Z,21.10
2019-05-23T11:20:40.671Z,23.23
2019-05-23T11:22:13.495Z,22.03
2019-05-23T11:23:48.946Z,21.97
2019-05-23T11:25:22.519Z,21.40
2019-05-23T11:26:54.635Z,20.90
2019-05-23T11:28:27.076Z,19.63
2019-05-23T11:29:59.278Z,20.17
2019-05-23T11:31:31.537Z,20.93
2019-05-23T11:33:03.706Z,20.03
2019-05-23T11:34:36.259Z,20.10
2019-05-23T11:36:09.392Z,20.00
2019-05-23T11:37:42.210Z,17.03
2019-05-23T11:39:14.705Z,19.03
2019-05-23T11:40:46.923Z,19.23
2019-05-23T11:42:19.389Z,18.77
2019-05-23T11:43:51.893Z,17.80
2019-05-23T11:45:26.122Z,18.70
2019-05-23T11:46:58.755Z,22.43
2019-05-23T11:48:31.973Z,26.43
2019-05-23T11:50:04.446Z,19.17
2019-05-23T11:51:37.463Z,17.90
2019-05-23T11:53:09.756Z,18.07
2019-05-23T11:54:41.876Z,17.80
2019-05-23T11:56:13.985Z,19.50
2019-05-23T11:57:46.661Z,20.30
2019-05-23T11:59:18.794Z,10.67
2019-05-23T12:01:20.818Z,18.13
2019-05-23T12:02:49.999Z,17.17
2019-05-23T12:04:25.325Z,18.90
2019-05-23T12:05:57.445Z,17.63
2019-05-23T12:07:31.072Z,20.73
2019-05-23T12:09:05.183Z,21.37
2019-05-23T12:10:37.479Z,20.17
2019-05-23T12:12:09.622Z,16.53
2019-05-23T12:13:41.750Z,18.27
2019-05-23T12:15:18.709Z,12.77
2019-05-23T12:16:51.454Z,13.33
2019-05-23T12:18:23.640Z,18.17
2019-05-23T12:19:55.882Z,16.67
2019-05-23T12:21:28.157Z,15.50
2019-05-23T12:23:00.448Z,17.27
2019-05-23T12:24:35.518Z,14.70
2019-05-23T12:26:06.897Z,13.50
2019-05-23T12:27:39.063Z,16.43
2019-05-23T12:29:11.329Z,13.73
2019-05-23T12:30:43.573Z,14.53
2019-05-23T12:32:15.813Z,13.90
2019-05-23T12:33:48.083Z,13.83
2019-05-23T12:35:20.199Z,14.07
2019-05-23T12:36:52.476Z,15.23
2019-05-23T12:38:24.693Z,14.40
2019-05-23T12:39:57.361Z,12.40
2019-05-23T12:41:29.596Z,12.10
2019-05-23T12:43:01.711Z,13.73
2019-05-23T12:44:33.871Z,10.47
2019-05-23T12:46:06.379Z,10.00
2019-05-23T12:47:49.750Z,11.10
2019-05-23T12:49:32.792Z,11.73
2019-05-23T12:51:05.647Z,7.93
2019-05-23T12:52:37.938Z,12.07
2019-05-23T12:54:10.071Z,14.60
2019-05-23T12:55:42.494Z,15.00
2019-05-23T12:57:14.767Z,9.30
2019-05-23T12:58:47.166Z,14.23
2019-05-23T13:00:42.206Z,15.17
2019-05-23T13:02:20.043Z,13.40
2019-05-23T13:03:52.203Z,9.77
2019-05-23T13:05:25.213Z,10.67
2019-05-23T13:06:57.822Z,7.87
2019-05-23T13:08:30.107Z,13.87
2019-05-23T13:10:02.534Z,9.57
2019-05-23T13:11:34.759Z,11.10
2019-05-23T13:13:06.898Z,9.67
2019-05-23T13:14:39.171Z,12.13
2019-05-23T13:16:11.358Z,8.97
2019-05-23T13:17:43.600Z,15.50
2019-05-23T13:19:16.602Z,15.90
2019-05-23T13:20:49.205Z,13.47
2019-05-23T13:22:21.550Z,11.33
2019-05-23T13:23:53.807Z,13.20
2019-05-23T13:25:26.942Z,11.83
2019-05-23T13:26:59.085Z,8.47
2019-05-23T13:28:31.405Z,14.10
2019-05-23T13:30:04.413Z,12.93
2019-05-23T13:31:36.823Z,12.43
2019-05-23T13:33:09.122Z,9.27
2019-05-23T13:34:41.358Z,13.70
2019-05-23T13:36:13.692Z,13.47
2019-05-23T13:37:53.612Z,14.43
2019-05-23T13:39:20.834Z,12.80
2019-05-23T13:40:53.167Z,13.17
2019-05-23T13:42:25.415Z,11.70
2019-05-23T13:43:57.647Z,11.07
2019-05-23T13:45:30.178Z,8.50
2019-05-23T13:47:02.443Z,7.23
2019-05-23T13:48:34.767Z,11.27
2019-05-23T13:50:07.687Z,14.90
2019-05-23T13:51:40.080Z,11.30
2019-05-23T13:53:12.252Z,11.87
2019-05-23T13:54:44.616Z,8.50
2019-05-23T13:56:17.112Z,8.13
2019-05-23T13:57:49.235Z,10.57
2019-05-23T13:59:21.563Z,10.90
2019-05-23T14:00:53.697Z,11.60
2019-05-23T14:02:26.184Z,11.60
2019-05-23T14:03:58.861Z,10.50
2019-05-23T14:05:31.401Z,9.97
2019-05-23T14:07:03.877Z,11.43
2019-05-23T14:08:36.121Z,10.77
2019-05-23T14:10:09.247Z,12.27
2019-05-23T14:11:41.584Z,13.17
2019-05-23T14:13:13.701Z,11.77
2019-05-23T14:14:45.981Z,15.50
2019-05-23T14:16:18.216Z,11.50
2019-05-23T14:17:50.755Z,12.10
2019-05-23T14:19:23.079Z,11.80
2019-05-23T14:20:55.623Z,11.20
2019-05-23T14:22:28.519Z,11.40
2019-05-23T14:24:01.035Z,11.03
2019-05-23T14:25:33.215Z,9.93
2019-05-23T14:27:14.397Z,11.80
2019-05-23T14:28:46.666Z,11.83
2019-05-23T14:30:52.006Z,9.97
2019-05-23T14:32:42.010Z,10.80
2019-05-23T14:34:16.820Z,10.77
2019-05-23T14:35:50.507Z,11.67
2019-05-23T14:37:28.734Z,11.83
2019-05-23T14:39:01.931Z,12.30
2019-05-23T14:40:34.255Z,11.17
2019-05-23T14:42:19.084Z,10.90
2019-05-23T14:43:51.613Z,12.27
2019-05-23T14:45:41.237Z,11.13
2019-05-23T14:47:24.888Z,12.90
2019-05-23T14:49:11.336Z,9.80
2019-05-23T14:50:57.685Z,11.43
2019-05-23T14:52:34.810Z,12.20
2019-05-23T14:54:12.858Z,10.97
2019-05-23T14:55:44.977Z,10.03
2019-05-23T14:57:17.603Z,11.20
2019-05-23T14:58:50.397Z,10.20
2019-05-23T15:00:24.459Z,11.20
2019-05-23T15:01:56.583Z,11.83
2019-05-23T15:03:29.367Z,11.50
2019-05-23T15:05:01.522Z,12.20
2019-05-23T15:06:33.827Z,11.60
2019-05-23T15:08:05.945Z,12.37
2019-05-23T15:09:38.202Z,12.20
2019-05-23T15:11:10.741Z,12.07
2019-05-23T15:12:43.104Z,11.77
2019-05-23T15:14:15.211Z,11.37
2019-05-23T15:15:47.321Z,11.10
2019-05-23T15:17:19.587Z,10.40
2019-05-23T15:18:52.048Z,11.87
2019-05-23T15:20:24.109Z,11.97
2019-05-23T15:21:57.027Z,11.47
2019-05-23T15:23:29.726Z,12.73
2019-05-23T15:25:02.053Z,11.40
2019-05-23T15:26:34.186Z,11.60
2019-05-23T15:28:06.830Z,12.30
2019-05-23T15:29:38.959Z,11.23
2019-05-23T15:31:11.289Z,12.33
2019-05-23T15:32:43.408Z,12.00
2019-05-23T15:34:15.607Z,10.97
2019-05-23T15:35:48.097Z,10.57
2019-05-23T15:37:21.454Z,12.43
2019-05-23T15:39:08.011Z,12.27
2019-05-23T15:40:28.404Z,11.10
2019-05-23T15:42:00.556Z,10.40
2019-05-23T15:43:32.763Z,10.63
2019-05-23T15:45:05.381Z,15.13
2019-05-23T15:46:37.701Z,11.00
2019-05-23T15:48:09.937Z,12.30
2019-05-23T15:49:44.293Z,12.23
2019-05-23T15:51:20.475Z,12.70
2019-05-23T15:53:01.382Z,12.67
2019-05-23T15:54:44.863Z,12.20
2019-05-23T15:56:28.208Z,14.67
2019-05-23T15:58:02.110Z,10.97
2019-05-23T15:59:55.548Z,11.80
2019-05-23T16:01:33.877Z,12.47
2019-05-23T16:03:13.919Z,12.20
2019-05-23T16:04:46.346Z,12.17
2019-05-23T16:06:20.939Z,11.97
2019-05-23T16:07:53.338Z,11.80
2019-05-23T16:09:30.051Z,13.10
2019-05-23T16:11:00.773Z,12.50
2019-05-23T16:12:33.256Z,13.03
2019-05-23T16:14:05.520Z,12.50
2019-05-23T16:15:37.679Z,11.77
2019-05-23T16:17:11.166Z,13.13
2019-05-23T16:18:43.736Z,12.27
2019-05-23T16:20:15.978Z,11.97
2019-05-23T16:21:48.270Z,12.90
2019-05-23T16:23:20.609Z,12.07
2019-05-23T16:24:53.031Z,11.90
2019-05-23T16:26:25.427Z,11.30
2019-05-23T16:27:57.666Z,11.90
2019-05-23T16:29:30.274Z,13.07
2019-05-23T16:31:02.639Z,12.37
2019-05-23T16:32:34.741Z,11.90
2019-05-23T16:34:07.247Z,12.27
2019-05-23T16:35:39.695Z,12.67
2019-05-23T16:37:11.896Z,13.70
2019-05-23T16:38:44.723Z,13.07
2019-05-23T16:40:17.373Z,12.07
2019-05-23T16:41:49.584Z,11.37
2019-05-23T16:43:21.682Z,13.47
2019-05-23T16:44:53.804Z,13.03
2019-05-23T16:46:25.947Z,12.13
2019-05-23T16:47:58.276Z,12.40
2019-05-23T16:49:30.660Z,13.93
2019-05-23T16:51:02.953Z,12.40
2019-05-23T16:52:35.961Z,11.60
2019-05-23T16:54:08.509Z,15.90
2019-05-23T16:56:05.079Z,18.20
2019-05-23T16:57:50.653Z,12.63
2019-05-23T16:59:29.946Z,12.50
2019-05-23T17:01:24.047Z,11.60
2019-05-23T17:03:12.156Z,12.40
2019-05-23T17:05:09.972Z,13.20
2019-05-23T17:06:54.349Z,13.03
2019-05-23T17:08:44.372Z,12.00
2019-05-23T17:10:27.613Z,11.47
2019-05-23T17:12:19.361Z,11.33
2019-05-23T17:13:56.194Z,11.20
2019-05-23T17:15:53.657Z,12.50
2019-05-23T17:18:00.533Z,12.27
2019-05-23T17:19:31.552Z,12.93
2019-05-23T17:21:12.962Z,11.17
2019-05-23T17:23:17.032Z,13.00
2019-05-23T17:24:55.128Z,11.27
2019-05-23T17:26:45.432Z,12.47
2019-05-23T17:28:43.387Z,14.07
2019-05-23T17:30:41.152Z,12.00
2019-05-23T17:32:16.932Z,12.63
2019-05-23T17:33:49.347Z,11.87
2019-05-23T17:35:21.638Z,12.60
2019-05-23T17:36:53.806Z,11.87
2019-05-23T17:38:26.654Z,11.23
2019-05-23T17:39:59.217Z,11.37
2019-05-23T17:41:32.038Z,10.70
2019-05-23T17:43:04.541Z,11.33
2019-05-23T17:44:37.043Z,11.10
2019-05-23T17:46:09.250Z,13.73
2019-05-23T17:47:41.459Z,11.10
2019-05-23T17:49:13.726Z,14.13
2019-05-23T17:50:46.110Z,12.27
2019-05-23T17:52:18.729Z,11.10
2019-05-23T17:53:51.005Z,11.57
2019-05-23T17:55:23.789Z,12.60
2019-05-23T17:56:55.975Z,12.77
2019-05-23T17:58:28.208Z,12.60
2019-05-23T18:00:00.476Z,11.57
2019-05-23T18:01:32.972Z,10.23
2019-05-23T18:03:05.791Z,10.97
2019-05-23T18:04:38.016Z,10.33
2019-05-23T18:06:10.231Z,11.43
2019-05-23T18:07:43.150Z,10.80
2019-05-23T18:09:15.836Z,11.57
2019-05-23T18:10:48.093Z,11.30
2019-05-23T18:12:20.493Z,11.83
2019-05-23T18:13:53.562Z,10.90
2019-05-23T18:15:27.280Z,10.70
2019-05-23T18:16:59.844Z,10.30
2019-05-23T18:18:32.213Z,12.57
2019-05-23T18:20:06.643Z,11.37
2019-05-23T18:21:39.258Z,11.30
2019-05-23T18:23:12.164Z,10.37
2019-05-23T18:24:45.457Z,12.10
2019-05-23T18:26:17.686Z,10.93
2019-05-23T18:27:50.060Z,10.33
2019-05-23T18:29:22.527Z,11.83
2019-05-23T18:31:06.654Z,12.87
2019-05-23T18:32:36.594Z,12.17
2019-05-23T18:34:10.117Z,12.43
2019-05-23T18:35:43.094Z,10.57
2019-05-23T18:37:15.625Z,10.63
2019-05-23T18:38:47.809Z,11.03
2019-05-23T18:40:19.959Z,12.57
2019-05-23T18:41:52.580Z,13.50
2019-05-23T18:43:25.160Z,11.97
2019-05-23T18:44:57.612Z,11.63
2019-05-23T18:46:37.839Z,10.47
2019-05-23T18:48:10.818Z,10.33
2019-05-23T18:49:43.721Z,10.40
2019-05-23T18:51:15.936Z,12.03
2019-05-23T18:52:51.598Z,10.10
2019-05-23T18:54:22.860Z,10.43
2019-05-23T18:55:55.371Z,11.17
2019-05-23T18:57:27.593Z,11.57
2019-05-23T18:59:00.754Z,10.93
2019-05-23T19:00:59.363Z,10.73
2019-05-23T19:02:32.351Z,11.30
2019-05-23T19:04:05.092Z,12.00
2019-05-23T19:05:37.742Z,12.27
2019-05-23T19:07:10.837Z,14.10
2019-05-23T19:08:42.999Z,12.03
2019-05-23T19:10:15.255Z,11.23
2019-05-23T19:11:47.429Z,11.97
2019-05-23T19:13:19.840Z,12.37
2019-05-23T19:14:52.055Z,11.77
2019-05-23T19:16:24.665Z,13.83
2019-05-23T19:17:57.062Z,11.87
2019-05-23T19:19:29.596Z,13.87
2019-05-23T19:21:03.525Z,12.60
2019-05-23T19:22:36.386Z,11.80
2019-05-23T19:24:09.590Z,15.47
2019-05-23T19:25:42.492Z,11.60
2019-05-23T19:27:14.931Z,12.40
2019-05-23T19:28:47.372Z,12.83
2019-05-23T19:30:20.042Z,14.67
2019-05-23T19:31:52.664Z,12.80
2019-05-23T19:33:25.437Z,14.20
2019-05-23T19:34:57.996Z,12.93
2019-05-23T19:36:31.180Z,13.07
2019-05-23T19:38:03.952Z,15.07
2019-05-23T19:39:37.691Z,12.33
2019-05-23T19:41:11.888Z,14.13
2019-05-23T19:42:44.086Z,13.97
2019-05-23T19:44:16.148Z,14.80
2019-05-23T19:45:49.001Z,15.53
2019-05-23T19:47:21.236Z,12.90
2019-05-23T19:48:54.615Z,15.83
2019-05-23T19:50:27.777Z,15.20
2019-05-23T19:52:00.130Z,14.63
2019-05-23T19:53:32.716Z,14.63
2019-05-23T19:55:05.835Z,16.47
2019-05-23T19:56:38.279Z,13.50
2019-05-23T19:58:10.434Z,14.30
2019-05-23T19:59:42.779Z,15.20
2019-05-23T20:01:15.305Z,14.77
2019-05-23T20:02:51.593Z,13.97
2019-05-23T20:04:28.451Z,13.97
2019-05-23T20:05:58.566Z,14.77
2019-05-23T20:07:30.771Z,17.63
2019-05-23T20:09:09.527Z,15.03
2019-05-23T20:10:41.759Z,15.47
2019-05-23T20:12:14.266Z,18.83
2019-05-23T20:13:46.393Z,15.10
2019-05-23T20:15:18.882Z,16.97